Time,TemperatureF,DewpointF,PressureIn,WindDirection,WindDirectionDegrees,WindSpeedMPH,WindSpeedGustMPH,Humidity,HourlyPrecipIn,Conditions,Clouds,dailyrainin,SoftwareType,DateUTC
2013-05-25 13:22:00,75.0,62.0,30.13,South,188,6.0,16.0,63,0.00,,,0.00,,2013-05-25 17:22:00,
2013-05-25 13:33:00,75.0,62.0,30.13,South,188,6.0,16.0,63,0.00,,,0.00,,2013-05-25 17:33:00,
2013-05-25 13:42:00,75.0,62.0,30.13,South,188,6.0,16.0,63,0.00,,,0.00,,2013-05-25 17:42:00,
2013-05-25 13:52:00,75.0,62.0,30.13,South,188,6.0,16.0,63,0.00,,,0.00,,2013-05-25 17:52:00,
2013-05-25 14:01:00,75.0,62.0,30.13,South,188,6.0,16.0,63,0.00,,,0.00,,2013-05-25 18:01:00,
2013-05-25 15:02:00,81.0,65.0,30.08,South,179,5.0,14.0,58,0.00,,,0.00,,2013-05-25 19:02:00,
2013-05-25 15:22:00,81.0,65.0,30.08,South,179,5.0,14.0,58,0.00,,,0.00,,2013-05-25 19:22:00,
2013-05-25 15:32:00,81.0,65.0,30.08,South,179,5.0,14.0,58,0.00,,,0.00,,2013-05-25 19:32:00,
2013-05-25 15:42:00,81.0,65.0,30.08,South,179,5.0,14.0,58,0.00,,,0.00,,2013-05-25 19:42:00,
2013-05-25 15:52:00,81.0,65.0,30.08,South,179,5.0,14.0,58,0.00,,,0.00,,2013-05-25 19:52:00,
2013-05-25 17:02:00,82.0,64.0,30.05,SSE,160,7.0,16.0,55,0.00,,,0.00,,2013-05-25 21:02:00,
2013-05-25 17:22:00,82.0,64.0,30.05,SSE,160,7.0,16.0,55,0.00,,,0.00,,2013-05-25 21:22:00,
2013-05-25 17:33:00,82.0,64.0,30.05,SSE,160,7.0,16.0,55,0.00,,,0.00,,2013-05-25 21:33:00,
2013-05-25 17:43:00,82.0,64.0,30.05,SSE,160,7.0,16.0,55,0.00,,,0.00,,2013-05-25 21:43:00,
2013-05-25 17:53:00,82.0,64.0,30.05,SSE,160,7.0,16.0,55,0.00,,,0.00,,2013-05-25 21:53:00,
2013-05-25 19:22:00,82.0,62.0,30.00,SSW,205,13.0,24.0,51,0.00,,,0.00,,2013-05-25 23:22:00,
2013-05-25 19:32:00,82.0,62.0,30.00,SSW,205,13.0,24.0,51,0.00,,,0.00,,2013-05-25 23:32:00,
2013-05-25 19:42:00,82.0,62.0,30.00,SSW,205,13.0,24.0,51,0.00,,,0.00,,2013-05-25 23:42:00,
2013-05-25 19:52:00,82.0,62.0,30.00,SSW,205,13.0,24.0,51,0.00,,,0.00,,2013-05-25 23:52:00,
2013-05-25 20:01:00,82.0,62.0,30.00,SSW,205,13.0,24.0,51,0.00,,,0.00,,2013-05-26 00:01:00,
2013-05-25 21:02:00,80.0,64.0,30.01,South,176,3.0,7.0,59,0.00,,,0.00,,2013-05-26 01:02:00,
2013-05-25 21:21:00,80.0,64.0,30.01,South,176,3.0,7.0,59,0.00,,,0.00,,2013-05-26 01:21:00,
2013-05-25 21:32:00,80.0,64.0,30.01,South,176,3.0,7.0,59,0.00,,,0.00,,2013-05-26 01:32:00,
2013-05-25 21:42:00,80.0,64.0,30.01,South,176,3.0,7.0,59,0.00,,,0.00,,2013-05-26 01:42:00,
2013-05-25 21:53:00,80.0,64.0,30.01,South,176,3.0,7.0,59,0.00,,,0.00,,2013-05-26 01:53:00,
2013-05-25 23:02:00,74.0,65.0,30.04,SSW,207,1.0,3.0,73,0.00,,,0.00,,2013-05-26 03:02:00,
2013-05-25 23:22:00,74.0,65.0,30.04,SSW,207,1.0,3.0,73,0.00,,,0.00,,2013-05-26 03:22:00,
2013-05-25 23:33:00,74.0,65.0,30.04,SSW,207,1.0,3.0,73,0.00,,,0.00,,2013-05-26 03:33:00,
2013-05-25 23:43:00,74.0,65.0,30.04,SSW,207,1.0,3.0,73,0.00,,,0.00,,2013-05-26 03:43:00,
2013-05-25 23:53:00,74.0,65.0,30.04,SSW,207,1.0,3.0,73,0.00,,,0.00,,2013-05-26 03:53:00,